createdAt,value
2018-06-19T00:02:14.577Z,98590.98
2018-06-19T00:04:43.524Z,98589.63
2018-06-19T00:07:12.430Z,98589.56
2018-06-19T00:09:41.210Z,98580.45
2018-06-19T00:12:09.901Z,98580.02
2018-06-19T00:14:38.818Z,98589.80
2018-06-19T00:17:07.773Z,98586.38
2018-06-19T00:19:39.590Z,98584.77
2018-06-19T00:22:08.476Z,98595.39
2018-06-19T00:24:37.496Z,98595.39
2018-06-19T00:27:06.661Z,98597.45
2018-06-19T00:29:35.685Z,98591.87
2018-06-19T00:32:04.578Z,98598.05
2018-06-19T00:34:34.241Z,98601.03
2018-06-19T00:37:03.362Z,98603.77
2018-06-19T00:39:32.145Z,98599.84
2018-06-19T00:42:01.259Z,98606.19
2018-06-19T00:44:31.759Z,98607.17
2018-06-19T00:47:00.682Z,98616.15
2018-06-19T00:49:29.564Z,98611.00
2018-06-19T00:51:58.354Z,98612.14
2018-06-19T00:54:27.294Z,98607.34
2018-06-19T00:56:58.563Z,98610.00
2018-06-19T00:59:27.833Z,98610.80
2018-06-19T01:01:58.421Z,98603.82
2018-06-19T01:04:27.313Z,98610.08
2018-06-19T01:06:56.032Z,98610.50
2018-06-19T01:09:24.904Z,98614.26
2018-06-19T01:11:53.781Z,98607.59
2018-06-19T01:14:22.702Z,98609.76
2018-06-19T01:16:51.605Z,98606.33
2018-06-19T01:19:20.551Z,98612.01
2018-06-19T01:21:49.553Z,98608.07
2018-06-19T01:24:18.269Z,98611.59
2018-06-19T01:26:47.264Z,98615.67
2018-06-19T01:29:16.429Z,98614.73
2018-06-19T01:31:45.326Z,98610.09
2018-06-19T01:34:14.058Z,98615.81
2018-06-19T01:36:42.981Z,98609.99
2018-06-19T01:39:12.150Z,98611.09
2018-06-19T01:41:41.070Z,98612.89
2018-06-19T01:44:09.826Z,98612.33
2018-06-19T01:46:38.719Z,98609.38
2018-06-19T01:49:07.743Z,98607.21
2018-06-19T01:51:36.753Z,98603.93
2018-06-19T01:54:05.634Z,98602.06
2018-06-19T01:56:34.681Z,98605.73
2018-06-19T01:59:03.721Z,98609.87
2018-06-19T02:01:32.416Z,98608.92
2018-06-19T02:04:01.263Z,98605.96
2018-06-19T02:06:30.180Z,98606.00
2018-06-19T02:08:59.164Z,98606.75
2018-06-19T02:11:28.063Z,98608.13
2018-06-19T02:13:57.138Z,98611.88
2018-06-19T02:16:25.990Z,98611.50
2018-06-19T02:18:54.819Z,98613.01
2018-06-19T02:21:23.511Z,98612.57
2018-06-19T02:23:52.653Z,98610.50
2018-06-19T02:26:21.520Z,98611.69
2018-06-19T02:28:50.434Z,98608.58
2018-06-19T02:31:19.326Z,98611.36
2018-06-19T02:33:48.422Z,98615.20
2018-06-19T02:36:17.227Z,98611.13
2018-06-19T02:38:45.939Z,98608.63
2018-06-19T02:41:14.682Z,98615.53
2018-06-19T02:43:43.526Z,98618.44
2018-06-19T02:46:12.619Z,98614.34
2018-06-19T02:48:41.435Z,98619.62
2018-06-19T02:51:10.293Z,98615.05
2018-06-19T02:53:39.279Z,98617.78
2018-06-19T02:56:08.093Z,98620.50
2018-06-19T02:58:36.957Z,98620.59
2018-06-19T03:01:05.824Z,98624.67
2018-06-19T03:03:35.294Z,98618.91
2018-06-19T03:06:04.436Z,98616.18
2018-06-19T03:08:33.441Z,98618.67
2018-06-19T03:11:02.533Z,98620.33
2018-06-19T03:13:31.252Z,98624.35
2018-06-19T03:16:00.209Z,98618.25
2018-06-19T03:18:28.974Z,98630.59
2018-06-19T03:20:58.351Z,98633.88
2018-06-19T03:23:27.174Z,98631.40
2018-06-19T03:25:55.956Z,98635.16
2018-06-19T03:28:24.759Z,98632.11
2018-06-19T03:30:53.632Z,98632.52
2018-06-19T03:33:22.396Z,98640.04
2018-06-19T03:35:51.255Z,98633.00
2018-06-19T03:38:20.405Z,98633.14
2018-06-19T03:40:49.594Z,98633.88
2018-06-19T03:43:18.757Z,98647.41
2018-06-19T03:45:47.740Z,98649.42
2018-06-19T03:48:16.692Z,98643.33
2018-06-19T03:50:45.464Z,98649.98
2018-06-19T03:53:14.329Z,98647.27
2018-06-19T03:55:43.229Z,98641.64
2018-06-19T03:58:11.996Z,98649.57
2018-06-19T04:00:40.810Z,98650.88
2018-06-19T04:03:09.962Z,98648.21
2018-06-19T04:05:38.866Z,98653.27
2018-06-19T04:08:07.899Z,98658.08
2018-06-19T04:10:37.390Z,98652.64
2018-06-19T04:13:06.390Z,98652.78
2018-06-19T04:15:35.246Z,98651.03
2018-06-19T04:18:04.160Z,98653.18
2018-06-19T04:20:32.961Z,98657.98
2018-06-19T04:23:01.831Z,98657.03
2018-06-19T04:25:30.797Z,98654.91
2018-06-19T04:27:59.732Z,98660.36
2018-06-19T04:30:28.813Z,98654.11
2018-06-19T04:32:57.923Z,98651.55
2018-06-19T04:35:26.863Z,98651.23
2018-06-19T04:37:55.669Z,98655.09
2018-06-19T04:40:24.411Z,98651.39
2018-06-19T04:42:53.465Z,98648.59
2018-06-19T04:45:22.231Z,98649.16
2018-06-19T04:47:50.960Z,98656.84
2018-06-19T04:50:19.748Z,98650.02
2018-06-19T04:52:48.748Z,98653.63
2018-06-19T04:55:17.597Z,98659.37
2018-06-19T04:57:46.463Z,98659.78
2018-06-19T05:00:15.699Z,98654.33
2018-06-19T05:02:44.407Z,98649.47
2018-06-19T05:05:13.437Z,98658.19
2018-06-19T05:07:42.306Z,98657.86
2018-06-19T05:10:11.073Z,98660.64
2018-06-19T05:12:40.080Z,98659.36
2018-06-19T05:15:09.172Z,98665.08
2018-06-19T05:17:38.302Z,98664.20
2018-06-19T05:20:07.263Z,98662.63
2018-06-19T05:22:36.406Z,98665.92
2018-06-19T05:25:05.254Z,98671.73
2018-06-19T05:27:34.346Z,98662.40
2018-06-19T05:30:03.212Z,98669.97
2018-06-19T05:32:32.164Z,98670.33
2018-06-19T05:35:01.218Z,98673.95
2018-06-19T05:37:29.973Z,98683.84
2018-06-19T05:39:58.849Z,98683.37
2018-06-19T05:42:27.591Z,98676.16
2018-06-19T05:44:56.348Z,98676.88
2018-06-19T05:47:25.159Z,98672.81
2018-06-19T05:49:54.575Z,98672.28
2018-06-19T05:52:23.947Z,98676.45
2018-06-19T05:54:52.765Z,98677.91
2018-06-19T05:57:21.868Z,98684.93
2018-06-19T05:59:50.808Z,98689.33
2018-06-19T06:02:19.902Z,98693.84
2018-06-19T06:04:49.004Z,98690.46
2018-06-19T06:07:19.505Z,98683.42
2018-06-19T06:09:48.408Z,98700.04
2018-06-19T06:12:17.382Z,98695.99
2018-06-19T06:14:46.226Z,98687.50
2018-06-19T06:17:15.108Z,98694.08
2018-06-19T06:19:44.022Z,98694.77
2018-06-19T06:22:12.914Z,98697.69
2018-06-19T06:24:41.858Z,98693.28
2018-06-19T06:27:10.763Z,98701.64
2018-06-19T06:29:39.932Z,98710.45
2018-06-19T06:32:08.949Z,98708.28
2018-06-19T06:34:37.798Z,98709.34
2018-06-19T06:37:06.923Z,98712.16
2018-06-19T06:39:35.726Z,98709.45
2018-06-19T06:42:05.106Z,98711.25
2018-06-19T06:44:34.172Z,98709.54
2018-06-19T06:47:02.987Z,98703.98
2018-06-19T06:49:32.092Z,98713.16
2018-06-19T06:52:00.856Z,98715.23
2018-06-19T06:54:30.397Z,98719.30
2018-06-19T06:57:00.994Z,98711.30
2018-06-19T06:59:30.643Z,98712.33
2018-06-19T07:01:59.445Z,98712.35
2018-06-19T07:04:28.801Z,98711.88
2018-06-19T07:06:58.125Z,98716.91
2018-06-19T07:09:26.998Z,98721.80
2018-06-19T07:11:55.948Z,98717.14
2018-06-19T07:14:24.777Z,98720.34
2018-06-19T07:16:53.738Z,98712.33
2018-06-19T07:19:22.544Z,98716.21
2018-06-19T07:21:51.646Z,98709.13
2018-06-19T07:24:20.794Z,98712.70
2018-06-19T07:26:49.903Z,98704.71
2018-06-19T07:29:18.754Z,98706.34
2018-06-19T07:31:48.087Z,98706.56
2018-06-19T07:34:17.273Z,98704.70
2018-06-19T07:36:46.608Z,98705.55
2018-06-19T07:39:15.886Z,98716.27
2018-06-19T07:41:44.673Z,98705.52
2018-06-19T07:44:13.848Z,98710.83
2018-06-19T07:46:42.685Z,98711.17
2018-06-19T07:49:11.761Z,98709.10
2018-06-19T07:51:40.718Z,98703.83
2018-06-19T07:54:09.611Z,98710.25
2018-06-19T07:56:38.618Z,98712.89
2018-06-19T07:59:07.433Z,98718.25
2018-06-19T08:01:36.257Z,98714.87
2018-06-19T08:04:05.307Z,98718.70
2018-06-19T08:06:34.451Z,98715.67
2018-06-19T08:09:03.646Z,98704.48
2018-06-19T08:11:32.487Z,98708.12
2018-06-19T08:14:01.773Z,98709.23
2018-06-19T08:16:31.253Z,98705.58
2018-06-19T08:19:00.440Z,98704.55
2018-06-19T08:21:29.294Z,98698.48
2018-06-19T08:23:58.239Z,98697.12
2018-06-19T08:26:27.177Z,98693.28
2018-06-19T08:28:56.321Z,98687.00
2018-06-19T08:31:25.363Z,98694.48
2018-06-19T08:33:54.305Z,98694.80
2018-06-19T08:36:23.185Z,98694.74
2018-06-19T08:38:52.079Z,98694.22
2018-06-19T08:41:21.542Z,98697.37
2018-06-19T08:43:50.520Z,98699.06
2018-06-19T08:46:19.287Z,98702.08
2018-06-19T08:48:48.401Z,98701.67
2018-06-19T08:51:17.165Z,98699.44
2018-06-19T08:53:46.538Z,98695.95
2018-06-19T08:56:15.370Z,98695.68
2018-06-19T08:58:44.297Z,98695.84
2018-06-19T09:01:13.175Z,98697.20
2018-06-19T09:03:42.266Z,98701.23
2018-06-19T09:06:12.041Z,98703.73
2018-06-19T09:08:40.973Z,98696.73
2018-06-19T09:11:09.963Z,98701.56
2018-06-19T09:13:39.557Z,98695.02
2018-06-19T09:16:08.567Z,98696.30
2018-06-19T09:18:41.287Z,98702.69
2018-06-19T09:21:10.472Z,98697.99
2018-06-19T09:23:39.340Z,98696.03
2018-06-19T09:26:08.613Z,98699.11
2018-06-19T09:28:37.538Z,98703.52
2018-06-19T09:31:06.752Z,98704.02
2018-06-19T09:33:35.821Z,98699.80
2018-06-19T09:36:04.709Z,98699.42
2018-06-19T09:38:34.024Z,98704.25
2018-06-19T09:41:03.030Z,98709.52
2018-06-19T09:43:32.043Z,98706.45
2018-06-19T09:46:00.728Z,98711.70
2018-06-19T09:48:29.520Z,98701.91
2018-06-19T09:50:58.454Z,98704.34
2018-06-19T09:53:27.316Z,98700.05
2018-06-19T09:55:56.190Z,98708.38
2018-06-19T09:58:25.430Z,98703.09
2018-06-19T10:00:55.022Z,98703.63
2018-06-19T10:03:26.047Z,98702.20
2018-06-19T10:05:54.899Z,98699.95
2018-06-19T10:08:23.738Z,98698.09
2018-06-19T10:10:52.570Z,98698.73
2018-06-19T10:13:21.562Z,98699.63
2018-06-19T10:15:50.532Z,98700.82
2018-06-19T10:18:19.927Z,98696.50
2018-06-19T10:20:48.893Z,98703.66
2018-06-19T10:23:17.657Z,98699.69
2018-06-19T10:25:46.689Z,98698.09
2018-06-19T10:28:15.512Z,98707.30
2018-06-19T10:30:44.656Z,98697.45
2018-06-19T10:33:13.745Z,98692.30
2018-06-19T10:35:42.819Z,98689.44
2018-06-19T10:38:11.740Z,98697.92
2018-06-19T10:40:40.607Z,98701.09
2018-06-19T10:43:09.908Z,98703.05
2018-06-19T10:45:39.013Z,98693.95
2018-06-19T10:48:07.987Z,98692.99
2018-06-19T10:50:37.014Z,98696.88
2018-06-19T10:53:05.975Z,98692.90
2018-06-19T10:55:34.907Z,98696.15
2018-06-19T10:58:03.812Z,98696.20
2018-06-19T11:00:32.750Z,98693.59
2018-06-19T11:03:02.631Z,98687.16
2018-06-19T11:05:31.815Z,98686.89
2018-06-19T11:08:00.860Z,98680.42
2018-06-19T11:10:29.849Z,98683.78
2018-06-19T11:12:58.723Z,98682.83
2018-06-19T11:15:27.749Z,98681.85
2018-06-19T11:17:56.950Z,98670.38
2018-06-19T11:20:26.542Z,98682.44
2018-06-19T11:22:55.506Z,98683.73
2018-06-19T11:25:24.609Z,98684.57
2018-06-19T11:27:53.471Z,98697.05
2018-06-19T11:30:22.298Z,98686.11
2018-06-19T11:32:51.361Z,98685.20
2018-06-19T11:35:20.539Z,98681.23
2018-06-19T11:37:49.673Z,98681.50
2018-06-19T11:40:18.397Z,98685.19
2018-06-19T11:42:47.287Z,98684.48
2018-06-19T11:45:16.221Z,98687.56
2018-06-19T11:47:45.475Z,98686.87
2018-06-19T11:50:14.777Z,98683.44
2018-06-19T11:52:44.283Z,98684.81
2018-06-19T11:55:13.130Z,98675.41
2018-06-19T11:57:42.752Z,98676.32
2018-06-19T12:00:11.562Z,98679.40
2018-06-19T12:02:40.783Z,98676.47
2018-06-19T12:05:09.764Z,98684.61
2018-06-19T12:07:45.126Z,98687.28
2018-06-19T12:10:14.016Z,98675.94
2018-06-19T12:12:42.752Z,98678.64
2018-06-19T12:15:11.646Z,98686.20
2018-06-19T12:17:40.610Z,98683.03
2018-06-19T12:20:09.894Z,98679.38
2018-06-19T12:22:38.774Z,98683.00
2018-06-19T12:25:07.609Z,98678.88
2018-06-19T12:27:36.608Z,98671.72
2018-06-19T12:30:06.786Z,98675.84
2018-06-19T12:32:36.157Z,98664.66
2018-06-19T12:35:05.115Z,98665.64
2018-06-19T12:37:33.964Z,98667.73
2018-06-19T12:40:02.894Z,98664.14
2018-06-19T12:42:31.952Z,98666.47
2018-06-19T12:45:01.171Z,98670.11
2018-06-19T12:47:30.373Z,98671.36
2018-06-19T12:51:42.050Z,98664.73
2018-06-19T12:55:04.757Z,98667.16
2018-06-19T12:57:34.404Z,98672.53
2018-06-19T13:00:03.546Z,98673.88
2018-06-19T13:02:32.379Z,98668.45
2018-06-19T13:05:12.096Z,98663.50
2018-06-19T13:07:42.971Z,98670.59
2018-06-19T13:10:12.903Z,98676.02
2018-06-19T13:13:18.425Z,98671.01
2018-06-19T13:15:47.441Z,98669.27
2018-06-19T13:18:27.469Z,98672.77
2018-06-19T13:20:56.476Z,98663.95
2018-06-19T13:23:25.443Z,98660.19
2018-06-19T13:25:54.599Z,98655.23
2018-06-19T13:28:33.134Z,98656.50
2018-06-19T13:31:13.156Z,98655.59
2018-06-19T13:33:42.169Z,98653.90
2018-06-19T13:36:11.135Z,98654.34
2018-06-19T13:38:40.414Z,98653.13
2018-06-19T13:41:21.646Z,98656.53
2018-06-19T13:44:02.773Z,98643.63
2018-06-19T13:46:31.997Z,98642.55
2018-06-19T13:49:00.882Z,98649.82
2018-06-19T13:51:29.882Z,98646.34
2018-06-19T13:53:58.642Z,98643.38
2018-06-19T13:57:40.072Z,98645.39
2018-06-19T14:00:12.189Z,98647.39
2018-06-19T14:02:41.117Z,98652.63
2018-06-19T14:05:10.726Z,98646.47
2018-06-19T14:07:50.675Z,98641.56
2018-06-19T14:11:28.905Z,98650.56
2018-06-19T14:13:57.985Z,98640.47
2018-06-19T14:16:27.066Z,98636.86
2018-06-19T14:18:55.875Z,98640.27
2018-06-19T14:21:24.752Z,98634.70
2018-06-19T14:23:53.915Z,98634.39
2018-06-19T14:26:23.041Z,98632.42
2018-06-19T14:28:51.889Z,98619.63
2018-06-19T14:31:20.657Z,98634.00
2018-06-19T14:33:49.480Z,98633.21
2018-06-19T14:36:18.375Z,98635.79
2018-06-19T14:38:47.077Z,98628.31
2018-06-19T14:41:16.038Z,98639.48
2018-06-19T14:43:44.892Z,98625.94
2018-06-19T14:46:13.686Z,98622.78
2018-06-19T14:48:42.691Z,98622.14
2018-06-19T14:51:11.854Z,98617.34
2018-06-19T14:53:40.885Z,98618.47
2018-06-19T14:56:09.715Z,98617.77
2018-06-19T14:58:38.614Z,98610.28
2018-06-19T15:01:07.438Z,98616.07
2018-06-19T15:03:36.536Z,98603.46
2018-06-19T15:06:05.489Z,98606.47
2018-06-19T15:08:34.434Z,98605.58
2018-06-19T15:11:03.935Z,98602.68
2018-06-19T15:13:32.795Z,98604.85
2018-06-19T15:16:01.619Z,98597.36
2018-06-19T15:18:30.837Z,98603.27
2018-06-19T15:20:59.809Z,98595.47
2018-06-19T15:23:28.803Z,98589.30
2018-06-19T15:25:57.688Z,98588.44
2018-06-19T15:28:26.667Z,98590.09
2018-06-19T15:30:59.143Z,98592.31
2018-06-19T15:33:28.187Z,98588.23
2018-06-19T15:35:56.985Z,98587.05
2018-06-19T15:38:25.970Z,98581.31
2018-06-19T15:40:55.232Z,98580.50
2018-06-19T15:43:23.964Z,98587.17
2018-06-19T15:45:54.579Z,98581.50
2018-06-19T15:48:23.620Z,98580.61
2018-06-19T15:50:52.562Z,98578.94
2018-06-19T15:53:21.410Z,98582.16
2018-06-19T15:55:50.422Z,98579.23
2018-06-19T15:58:19.217Z,98582.49
2018-06-19T16:00:48.643Z,98583.44
2018-06-19T16:03:17.622Z,98587.91
2018-06-19T16:05:46.480Z,98583.15
2018-06-19T16:08:17.881Z,98584.88
2018-06-19T16:10:48.289Z,98588.17
2018-06-19T16:13:19.280Z,98587.94
2018-06-19T16:15:48.007Z,98588.70
2018-06-19T16:18:17.094Z,98593.11
2018-06-19T16:20:46.021Z,98597.98
2018-06-19T16:23:15.048Z,98597.72
2018-06-19T16:25:43.966Z,98597.75
2018-06-19T16:28:12.876Z,98598.05
2018-06-19T16:30:42.169Z,98593.09
2018-06-19T16:33:11.004Z,98597.20
2018-06-19T16:35:40.098Z,98597.89
2018-06-19T16:38:09.106Z,98601.05
2018-06-19T16:40:38.309Z,98592.03
2018-06-19T16:43:07.291Z,98596.74
2018-06-19T16:45:36.422Z,98591.58
2018-06-19T16:48:05.739Z,98588.89
2018-06-19T16:50:35.002Z,98586.57
2018-06-19T16:53:04.004Z,98590.78
2018-06-19T16:55:33.116Z,98591.12
2018-06-19T16:58:01.836Z,98592.11
2018-06-19T17:00:30.671Z,98590.98
2018-06-19T17:02:59.586Z,98589.32
2018-06-19T17:05:29.164Z,98601.92
2018-06-19T17:07:57.916Z,98597.22
2018-06-19T17:10:27.050Z,98597.41
2018-06-19T17:12:56.042Z,98593.12
2018-06-19T17:15:25.210Z,98589.09
2018-06-19T17:17:53.970Z,98590.09
2018-06-19T17:20:23.157Z,98592.38
2018-06-19T17:22:52.223Z,98593.81
2018-06-19T17:25:21.194Z,98593.55
2018-06-19T17:27:50.018Z,98589.38
2018-06-19T17:30:18.903Z,98596.21
2018-06-19T17:32:47.729Z,98593.93
2018-06-19T17:35:19.425Z,98600.03
2018-06-19T17:37:48.404Z,98590.37
2018-06-19T17:40:17.638Z,98591.84
2018-06-19T17:42:46.657Z,98589.97
2018-06-19T17:45:15.869Z,98593.63
2018-06-19T17:47:44.973Z,98592.73
2018-06-19T17:50:13.944Z,98593.34
2018-06-19T17:52:43.778Z,98590.08
2018-06-19T17:55:12.541Z,98589.76
2018-06-19T17:57:41.859Z,98587.03
2018-06-19T18:00:11.116Z,98589.76
2018-06-19T18:02:40.291Z,98595.12
2018-06-19T18:05:09.380Z,98589.22
2018-06-19T18:07:38.251Z,98593.26
2018-06-19T18:10:07.274Z,98593.94
2018-06-19T18:12:36.131Z,98598.73
2018-06-19T18:15:06.452Z,98594.16
2018-06-19T18:17:35.352Z,98590.49
2018-06-19T18:20:04.533Z,98587.20
2018-06-19T18:22:33.702Z,98588.67
2018-06-19T18:25:03.088Z,98592.02
2018-06-19T18:27:31.849Z,98590.84
2018-06-19T18:30:01.041Z,98589.73
2018-06-19T18:32:30.028Z,98590.95
2018-06-19T18:35:02.970Z,98592.42
2018-06-19T18:37:31.967Z,98591.15
2018-06-19T18:40:00.822Z,98592.31
2018-06-19T18:42:31.911Z,98597.34
2018-06-19T18:45:00.972Z,98591.76
2018-06-19T18:47:29.939Z,98594.05
2018-06-19T18:49:58.867Z,98593.40
2018-06-19T18:52:29.793Z,98599.49
2018-06-19T18:54:58.910Z,98593.77
2018-06-19T18:57:28.073Z,98596.83
2018-06-19T18:59:56.865Z,98597.16
2018-06-19T19:02:25.894Z,98600.42
2018-06-19T19:04:55.052Z,98604.17
2018-06-19T19:07:23.933Z,98604.30
2018-06-19T19:09:58.123Z,98606.72
2018-06-19T19:12:27.069Z,98608.31
2018-06-19T19:15:01.391Z,98612.02
2018-06-19T19:17:35.631Z,98619.19
2018-06-19T19:20:04.943Z,98617.69
2018-06-19T19:22:34.177Z,98616.39
2018-06-19T19:25:03.510Z,98621.23
2018-06-19T19:27:37.661Z,98623.92
2018-06-19T19:30:07.165Z,98622.34
2018-06-19T19:32:36.005Z,98618.34
2018-06-19T19:35:05.885Z,98617.70
2018-06-19T19:37:40.243Z,98617.41
2018-06-19T19:40:09.104Z,98626.45
2018-06-19T19:42:39.274Z,98624.44
2018-06-19T19:45:08.787Z,98632.91
2018-06-19T19:47:42.999Z,98636.19
2018-06-19T19:50:11.945Z,98636.89
2018-06-19T19:52:41.842Z,98636.61
2018-06-19T19:55:11.173Z,98643.77
2018-06-19T19:57:45.382Z,98644.44
2018-06-19T20:00:18.479Z,98641.91
2018-06-19T20:02:48.279Z,98646.31
2018-06-19T20:05:17.347Z,98644.52
2018-06-19T20:07:46.160Z,98651.02
2018-06-19T20:10:15.832Z,98652.40
2018-06-19T20:12:44.795Z,98647.60
2018-06-19T20:15:13.549Z,98651.52
2018-06-19T20:17:42.442Z,98650.35
2018-06-19T20:20:12.475Z,98648.19
2018-06-19T20:22:41.766Z,98650.14
2018-06-19T20:25:11.193Z,98646.75
2018-06-19T20:27:42.660Z,98645.59
2018-06-19T20:30:11.722Z,98648.18
2018-06-19T20:32:40.536Z,98650.14
2018-06-19T20:35:09.481Z,98643.96
2018-06-19T20:37:38.494Z,98647.02
2018-06-19T20:40:07.745Z,98646.09
2018-06-19T20:42:36.831Z,98640.72
2018-06-19T20:45:05.686Z,98644.87
2018-06-19T20:47:34.614Z,98647.41
2018-06-19T20:50:03.450Z,98645.94
2018-06-19T20:52:32.411Z,98647.36
2018-06-19T20:55:01.398Z,98648.73
2018-06-19T20:57:30.551Z,98650.11
2018-06-19T20:59:59.634Z,98647.82
2018-06-19T21:02:28.426Z,98647.66
2018-06-19T21:04:57.434Z,98643.80
2018-06-19T21:07:26.308Z,98643.64
2018-06-19T21:09:55.225Z,98646.17
2018-06-19T21:12:23.961Z,98646.65
2018-06-19T21:14:53.108Z,98642.77
2018-06-19T21:17:21.994Z,98649.76
2018-06-19T21:19:50.951Z,98651.49
2018-06-19T21:22:19.724Z,98643.61
2018-06-19T21:24:48.793Z,98645.03
2018-06-19T21:27:17.769Z,98648.19
2018-06-19T21:29:46.613Z,98648.11
2018-06-19T21:32:15.840Z,98641.82
2018-06-19T21:34:44.614Z,98644.25
2018-06-19T21:37:13.922Z,98644.65
2018-06-19T21:39:42.895Z,98647.17
2018-06-19T21:42:11.845Z,98644.66
2018-06-19T21:44:40.667Z,98643.42
2018-06-19T21:47:09.622Z,98645.41
2018-06-19T21:49:38.415Z,98641.77
2018-06-19T21:52:07.881Z,98645.15
2018-06-19T21:54:36.741Z,98645.62
2018-06-19T21:57:05.819Z,98643.48
2018-06-19T21:59:34.683Z,98639.14
2018-06-19T22:02:03.800Z,98641.45
2018-06-19T22:04:32.523Z,98644.87
2018-06-19T22:07:01.588Z,98640.12
2018-06-19T22:09:30.312Z,98639.83
2018-06-19T22:11:59.194Z,98646.36
2018-06-19T22:14:28.026Z,98652.44
2018-06-19T22:16:56.918Z,98646.73
2018-06-19T22:19:25.688Z,98651.88
2018-06-19T22:21:54.720Z,98650.42
2018-06-19T22:24:23.665Z,98654.20
2018-06-19T22:26:52.545Z,98656.61
2018-06-19T22:29:21.665Z,98654.90
2018-06-19T22:31:50.615Z,98655.61
2018-06-19T22:34:19.462Z,98659.02
2018-06-19T22:36:48.437Z,98650.59
2018-06-19T22:39:17.395Z,98660.90
2018-06-19T22:41:46.106Z,98651.31
2018-06-19T22:44:15.243Z,98653.40
2018-06-19T22:46:43.989Z,98655.02
2018-06-19T22:49:12.846Z,98660.95
2018-06-19T22:51:41.714Z,98652.98
2018-06-19T22:54:10.456Z,98661.20
2018-06-19T22:56:39.543Z,98660.28
2018-06-19T22:59:08.942Z,98656.87
2018-06-19T23:01:37.897Z,98653.42
2018-06-19T23:04:06.709Z,98654.57
2018-06-19T23:06:35.699Z,98655.11
2018-06-19T23:09:06.603Z,98661.29
2018-06-19T23:11:35.661Z,98654.56
2018-06-19T23:14:04.800Z,98661.28
2018-06-19T23:16:34.045Z,98658.89
2018-06-19T23:19:03.262Z,98656.84
2018-06-19T23:21:32.094Z,98663.56
2018-06-19T23:24:01.259Z,98665.72
2018-06-19T23:26:30.271Z,98666.18
2018-06-19T23:28:59.450Z,98661.84
2018-06-19T23:31:28.719Z,98665.94
2018-06-19T23:33:57.852Z,98663.64
2018-06-19T23:36:27.017Z,98665.48
2018-06-19T23:38:55.835Z,98660.69
2018-06-19T23:41:24.928Z,98661.94
2018-06-19T23:43:53.987Z,98657.94
2018-06-19T23:46:22.868Z,98662.19
2018-06-19T23:48:51.771Z,98660.58
2018-06-19T23:51:20.649Z,98656.57
2018-06-19T23:53:49.451Z,98657.92
2018-06-19T23:56:18.169Z,98660.41
2018-06-19T23:58:47.114Z,98657.30
